createdAt,value
2019-04-06T00:00:02.649Z,14.60
2019-04-06T00:02:30.713Z,14.50
2019-04-06T00:04:56.878Z,14.50
2019-04-06T00:07:23.030Z,14.40
2019-04-06T00:09:49.188Z,14.40
2019-04-06T00:12:15.374Z,14.40
2019-04-06T00:14:41.513Z,14.30
2019-04-06T00:17:08.041Z,14.30
2019-04-06T00:19:34.172Z,14.20
2019-04-06T00:22:00.397Z,14.20
2019-04-06T00:24:26.850Z,14.10
2019-04-06T00:26:53.011Z,14.10
2019-04-06T00:29:19.176Z,14.10
2019-04-06T00:31:50.042Z,14.00
2019-04-06T00:34:16.236Z,14.00
2019-04-06T00:36:42.398Z,14.00
2019-04-06T00:39:08.556Z,13.90
2019-04-06T00:41:34.753Z,13.90
2019-04-06T00:44:00.915Z,13.90
2019-04-06T00:46:27.085Z,13.80
2019-04-06T00:48:53.217Z,13.80
2019-04-06T00:51:19.375Z,13.80
2019-04-06T00:53:45.535Z,13.80
2019-04-06T00:56:11.677Z,13.70
2019-04-06T00:58:37.848Z,13.70
2019-04-06T01:01:03.990Z,13.70
2019-04-06T01:03:30.155Z,13.70
2019-04-06T01:05:56.287Z,13.60
2019-04-06T01:08:22.475Z,13.60
2019-04-06T01:10:48.608Z,13.60
2019-04-06T01:13:21.948Z,13.50
2019-04-06T01:15:48.369Z,13.50
2019-04-06T01:18:14.507Z,13.50
2019-04-06T01:20:40.664Z,13.40
2019-04-06T01:23:14.045Z,13.40
2019-04-06T01:25:40.163Z,13.40
2019-04-06T01:28:06.751Z,13.40
2019-04-06T01:30:33.315Z,13.40
2019-04-06T01:32:59.465Z,13.30
2019-04-06T01:35:25.967Z,13.30
2019-04-06T01:37:52.119Z,13.30
2019-04-06T01:40:18.281Z,13.30
2019-04-06T01:42:44.509Z,13.30
2019-04-06T01:45:11.030Z,13.30
2019-04-06T01:47:37.301Z,13.20
2019-04-06T01:50:04.265Z,13.20
2019-04-06T01:52:30.736Z,13.20
2019-04-06T01:54:59.031Z,13.20
2019-04-06T01:57:25.264Z,13.10
2019-04-06T01:59:51.567Z,13.10
2019-04-06T02:02:19.612Z,13.10
2019-04-06T02:04:45.768Z,13.10
2019-04-06T02:07:11.976Z,13.00
2019-04-06T02:09:38.144Z,13.00
2019-04-06T02:12:04.282Z,13.00
2019-04-06T02:14:30.537Z,13.00
2019-04-06T02:16:56.691Z,13.00
2019-04-06T02:19:22.817Z,12.90
2019-04-06T02:21:49.243Z,12.90
2019-04-06T02:24:15.491Z,12.90
2019-04-06T02:26:41.754Z,12.90
2019-04-06T02:29:07.889Z,12.90
2019-04-06T02:31:53.150Z,12.90
2019-04-06T02:34:24.323Z,12.90
2019-04-06T02:37:07.437Z,12.90
2019-04-06T02:39:38.826Z,12.90
2019-04-06T02:42:06.945Z,12.90
2019-04-06T02:44:33.093Z,12.90
2019-04-06T02:46:59.292Z,12.90
2019-04-06T02:49:25.447Z,12.90
2019-04-06T02:51:51.628Z,12.90
2019-04-06T02:54:18.083Z,12.90
2019-04-06T02:56:47.427Z,12.90
2019-04-06T02:59:12.312Z,12.90
2019-04-06T03:01:38.575Z,12.90
2019-04-06T03:04:04.742Z,12.90
2019-04-06T03:06:30.907Z,12.80
2019-04-06T03:08:57.354Z,12.80
2019-04-06T03:11:23.495Z,12.80
2019-04-06T03:13:49.648Z,12.80
2019-04-06T03:16:15.788Z,12.70
2019-04-06T03:18:42.213Z,12.70
2019-04-06T03:21:08.341Z,12.70
2019-04-06T03:23:49.200Z,12.70
2019-04-06T03:26:02.673Z,12.60
2019-04-06T03:28:28.822Z,12.60
2019-04-06T03:30:54.993Z,12.60
2019-04-06T03:33:21.152Z,12.60
2019-04-06T03:35:49.362Z,12.50
2019-04-06T03:38:15.370Z,12.60
2019-04-06T03:40:41.525Z,12.60
2019-04-06T03:43:09.005Z,12.50
2019-04-06T03:45:35.131Z,12.50
2019-04-06T03:48:01.299Z,12.60
2019-04-06T03:50:27.447Z,12.60
2019-04-06T03:52:53.738Z,12.60
2019-04-06T03:55:19.958Z,12.60
2019-04-06T03:57:46.125Z,12.60
2019-04-06T04:00:13.105Z,12.60
2019-04-06T04:02:39.259Z,12.60
2019-04-06T04:05:05.897Z,12.60
2019-04-06T04:07:32.183Z,12.60
2019-04-06T04:09:58.400Z,12.60
2019-04-06T04:12:24.559Z,12.60
2019-04-06T04:14:50.714Z,12.60
2019-04-06T04:17:16.868Z,12.50
2019-04-06T04:19:43.132Z,12.50
2019-04-06T04:22:09.366Z,12.50
2019-04-06T04:24:35.528Z,12.50
2019-04-06T04:27:01.807Z,12.50
2019-04-06T04:29:28.067Z,12.50
2019-04-06T04:31:54.206Z,12.40
2019-04-06T04:34:21.658Z,12.40
2019-04-06T04:36:48.125Z,12.40
2019-04-06T04:39:14.284Z,12.40
2019-04-06T04:41:40.712Z,12.30
2019-04-06T04:44:06.965Z,12.30
2019-04-06T04:46:33.588Z,12.30
2019-04-06T04:48:59.825Z,12.20
2019-04-06T04:51:26.253Z,12.20
2019-04-06T04:53:52.413Z,12.20
2019-04-06T04:56:18.829Z,12.20
2019-04-06T04:58:44.997Z,12.20
2019-04-06T05:01:11.135Z,12.20
2019-04-06T05:03:37.531Z,12.20
2019-04-06T05:06:03.928Z,12.20
2019-04-06T05:08:30.430Z,12.30
2019-04-06T05:10:56.583Z,12.30
2019-04-06T05:13:22.722Z,12.30
2019-04-06T05:16:03.521Z,12.40
2019-04-06T05:18:30.109Z,12.50
2019-04-06T05:20:56.371Z,12.60
2019-04-06T05:23:22.511Z,12.80
2019-04-06T05:25:48.698Z,12.90
2019-04-06T05:28:15.256Z,13.10
2019-04-06T05:30:41.786Z,13.20
2019-04-06T05:33:07.951Z,13.40
2019-04-06T05:35:34.697Z,13.60
2019-04-06T05:38:00.888Z,13.90
2019-04-06T05:40:27.046Z,14.10
2019-04-06T05:42:53.252Z,14.40
2019-04-06T05:45:19.418Z,14.60
2019-04-06T05:48:05.505Z,14.90
2019-04-06T05:50:32.642Z,15.10
2019-04-06T05:52:58.764Z,15.40
2019-04-06T05:55:27.142Z,15.70
2019-04-06T05:58:02.892Z,16.00
2019-04-06T06:00:21.374Z,16.30
2019-04-06T06:02:47.495Z,16.70
2019-04-06T06:05:13.928Z,17.00
2019-04-06T06:07:40.103Z,17.30
2019-04-06T06:10:06.909Z,17.60
2019-04-06T06:12:33.064Z,18.00
2019-04-06T06:14:59.264Z,18.30
2019-04-06T06:17:25.589Z,18.60
2019-04-06T06:19:51.819Z,19.00
2019-04-06T06:24:44.465Z,19.70
2019-04-06T06:27:10.893Z,20.10
2019-04-06T06:29:37.062Z,20.40
2019-04-06T06:32:03.239Z,20.70
2019-04-06T06:34:29.388Z,21.00
2019-04-06T06:36:55.541Z,21.30
2019-04-06T06:39:21.689Z,21.60
2019-04-06T06:41:47.896Z,21.90
2019-04-06T06:46:40.918Z,22.70
2019-04-06T06:49:07.046Z,23.00
2019-04-06T06:51:33.585Z,23.40
2019-04-06T06:54:01.161Z,23.90
2019-04-06T06:56:27.726Z,24.30
2019-04-06T06:58:54.164Z,24.80
2019-04-06T07:01:20.361Z,25.20
2019-04-06T07:03:47.014Z,25.70
2019-04-06T07:06:13.464Z,26.10
2019-04-06T07:08:39.763Z,26.60
2019-04-06T07:11:06.259Z,27.10
2019-04-06T07:13:32.512Z,27.50
2019-04-06T07:15:59.330Z,28.00
2019-04-06T07:18:25.775Z,28.40
2019-04-06T07:20:52.008Z,28.90
2019-04-06T07:23:18.290Z,29.30
2019-04-06T07:25:56.224Z,29.80
2019-04-06T07:28:14.479Z,30.20
2019-04-06T07:30:40.635Z,30.70
2019-04-06T07:33:06.937Z,31.10
2019-04-06T07:35:33.150Z,31.60
2019-04-06T07:37:59.372Z,32.00
2019-04-06T07:40:25.506Z,32.40
2019-04-06T07:42:51.878Z,32.80
2019-04-06T07:45:18.274Z,33.10
2019-04-06T07:47:44.460Z,33.40
2019-04-06T07:50:11.167Z,33.80
2019-04-06T07:52:37.394Z,34.10
2019-04-06T07:55:05.376Z,34.50
2019-04-06T07:57:31.581Z,34.90
2019-04-06T07:59:57.713Z,35.20
2019-04-06T08:02:24.253Z,35.60
2019-04-06T08:04:50.422Z,36.00
2019-04-06T08:07:16.793Z,36.30
2019-04-06T08:09:43.013Z,36.70
2019-04-06T08:12:09.206Z,37.00
2019-04-06T08:14:35.696Z,37.40
2019-04-06T08:17:01.986Z,37.60
2019-04-06T08:19:28.195Z,38.00
2019-04-06T08:21:54.339Z,38.30
2019-04-06T08:24:20.537Z,38.60
2019-04-06T08:26:46.935Z,38.90
2019-04-06T08:29:13.499Z,39.20
2019-04-06T08:31:39.716Z,39.50
2019-04-06T08:34:06.047Z,39.80
2019-04-06T08:36:32.378Z,40.10
2019-04-06T08:38:58.780Z,40.40
2019-04-06T08:41:25.264Z,40.60
2019-04-06T08:43:51.517Z,40.80
2019-04-06T08:46:17.648Z,41.00
2019-04-06T08:48:44.192Z,41.10
2019-04-06T08:51:10.502Z,41.30
2019-04-06T08:53:36.714Z,41.50
2019-04-06T08:56:02.876Z,41.70
2019-04-06T08:58:29.085Z,41.90
2019-04-06T09:00:55.213Z,42.10
2019-04-06T09:03:21.425Z,42.30
2019-04-06T09:05:47.757Z,42.60
2019-04-06T09:08:14.010Z,42.70
2019-04-06T09:10:40.214Z,42.90
2019-04-06T09:13:06.349Z,43.00
2019-04-06T09:15:32.554Z,43.10
2019-04-06T09:17:58.967Z,43.10
2019-04-06T09:20:25.321Z,43.10
2019-04-06T09:22:51.635Z,43.10
2019-04-06T09:25:18.119Z,43.20
2019-04-06T09:27:44.383Z,43.30
2019-04-06T09:30:11.375Z,43.40
2019-04-06T09:32:37.882Z,43.50
2019-04-06T09:35:04.340Z,43.70
2019-04-06T09:37:30.706Z,43.80
2019-04-06T09:39:56.940Z,43.80
2019-04-06T09:42:23.177Z,43.90
2019-04-06T09:44:51.354Z,44.00
2019-04-06T09:47:22.393Z,44.10
2019-04-06T09:49:50.755Z,44.10
2019-04-06T09:52:19.737Z,44.20
2019-04-06T09:55:04.406Z,44.30
2019-04-06T09:57:35.487Z,44.40
2019-04-06T10:00:13.244Z,44.40
2019-04-06T10:02:53.170Z,44.60
2019-04-06T10:05:21.825Z,44.60
2019-04-06T10:07:55.930Z,44.50
2019-04-06T10:10:24.029Z,44.30
2019-04-06T10:12:58.029Z,44.20
2019-04-06T10:15:43.006Z,44.00
2019-04-06T10:18:11.096Z,43.90
2019-04-06T10:20:54.433Z,43.60
2019-04-06T10:23:22.537Z,43.50
2019-04-06T10:25:53.638Z,43.30
2019-04-06T10:28:24.465Z,43.10
2019-04-06T10:30:55.499Z,43.00
2019-04-06T10:33:40.030Z,42.80
2019-04-06T10:36:08.235Z,42.80
2019-04-06T10:38:53.324Z,42.90
2019-04-06T10:41:30.274Z,43.00
2019-04-06T10:43:58.711Z,43.10
2019-04-06T10:46:38.887Z,43.20
2019-04-06T10:49:09.920Z,43.00
2019-04-06T10:51:40.559Z,42.90
2019-04-06T10:54:07.998Z,42.70
2019-04-06T10:56:52.972Z,42.60
2019-04-06T10:59:21.124Z,42.60
2019-04-06T11:02:04.709Z,42.70
2019-04-06T11:04:49.510Z,42.60
2019-04-06T11:07:36.169Z,42.60
2019-04-06T11:10:10.299Z,42.40
2019-04-06T11:12:47.548Z,42.20
2019-04-06T11:15:21.595Z,42.10
2019-04-06T11:17:55.465Z,41.90
2019-04-06T11:20:26.452Z,41.50
2019-04-06T11:23:13.105Z,41.10
2019-04-06T11:25:50.267Z,40.60
2019-04-06T11:28:21.275Z,40.20
2019-04-06T11:30:52.079Z,39.70
2019-04-06T11:33:20.174Z,39.10
2019-04-06T11:36:03.549Z,38.60
2019-04-06T11:38:48.637Z,38.10
2019-04-06T11:41:17.039Z,37.60
2019-04-06T11:43:51.083Z,37.10
2019-04-06T11:46:22.192Z,36.70
2019-04-06T11:48:59.198Z,36.30
2019-04-06T11:51:36.587Z,36.10
2019-04-06T11:54:07.932Z,35.80
2019-04-06T11:56:35.965Z,35.60
2019-04-06T11:59:28.288Z,35.40
2019-04-06T12:01:59.435Z,35.20
2019-04-06T12:04:37.986Z,35.00
2019-04-06T12:07:15.624Z,34.70
2019-04-06T12:09:49.596Z,34.50
2019-04-06T12:12:23.525Z,34.40
2019-04-06T12:14:59.598Z,34.30
2019-04-06T12:17:33.366Z,34.20
2019-04-06T12:20:10.646Z,34.20
2019-04-06T12:22:56.685Z,34.20
2019-04-06T12:25:27.980Z,34.30
2019-04-06T12:27:56.033Z,34.30
2019-04-06T12:30:36.638Z,34.30
2019-04-06T12:33:05.932Z,34.20
2019-04-06T12:35:43.323Z,34.10
2019-04-06T12:38:27.981Z,34.10
2019-04-06T12:41:12.833Z,33.90
2019-04-06T12:43:49.777Z,33.80
2019-04-06T12:46:36.256Z,33.60
2019-04-06T12:49:04.345Z,33.40
2019-04-06T12:51:50.617Z,33.10
2019-04-06T12:54:35.458Z,32.80
2019-04-06T12:57:12.728Z,32.50
2019-04-06T12:59:40.801Z,32.30
2019-04-06T13:02:08.886Z,32.10
2019-04-06T13:04:48.947Z,31.80
2019-04-06T13:07:20.048Z,31.60
2019-04-06T13:09:48.277Z,31.20
2019-04-06T13:12:34.545Z,30.90
2019-04-06T13:15:05.431Z,30.50
2019-04-06T13:17:33.710Z,30.10
2019-04-06T13:20:11.117Z,29.80
2019-04-06T13:22:42.365Z,29.50
2019-04-06T13:25:13.117Z,29.20
2019-04-06T13:27:49.950Z,28.90
2019-04-06T13:30:24.095Z,28.70
2019-04-06T13:32:52.525Z,28.50
2019-04-06T13:35:26.717Z,28.20
2019-04-06T13:37:54.852Z,28.10
2019-04-06T13:40:22.953Z,27.90
2019-04-06T13:42:53.951Z,27.70
2019-04-06T13:45:30.928Z,27.60
2019-04-06T13:48:02.434Z,27.50
2019-04-06T13:50:33.444Z,27.50
2019-04-06T13:53:13.676Z,27.40
2019-04-06T13:55:58.157Z,27.40
2019-04-06T13:58:26.209Z,27.30
2019-04-06T14:01:16.096Z,27.30
2019-04-06T14:03:59.055Z,27.20
2019-04-06T14:06:33.616Z,27.20
2019-04-06T14:09:11.051Z,27.20
2019-04-06T14:11:46.802Z,27.20
2019-04-06T14:14:14.848Z,27.20
2019-04-06T14:16:43.085Z,27.20
2019-04-06T14:19:28.582Z,27.20
2019-04-06T14:22:02.465Z,27.20
2019-04-06T14:24:33.824Z,27.10
2019-04-06T14:27:10.844Z,27.10
2019-04-06T14:29:47.988Z,27.10
2019-04-06T14:32:19.022Z,27.00
2019-04-06T14:34:47.302Z,26.90
2019-04-06T14:37:21.223Z,26.80
2019-04-06T14:40:06.253Z,26.70
2019-04-06T14:42:43.327Z,26.50
2019-04-06T14:45:14.600Z,26.40
2019-04-06T14:47:45.883Z,26.20
2019-04-06T14:50:30.743Z,26.00
2019-04-06T14:53:17.106Z,25.90
2019-04-06T14:56:03.518Z,25.70
2019-04-06T14:58:34.865Z,25.50
2019-04-06T15:01:03.011Z,25.30
2019-04-06T15:03:37.653Z,25.20
2019-04-06T15:06:14.855Z,25.10
2019-04-06T15:08:45.699Z,25.00
2019-04-06T15:11:30.672Z,25.00
2019-04-06T15:14:02.056Z,24.90
2019-04-06T15:16:45.041Z,24.80
2019-04-06T15:19:13.146Z,24.80
2019-04-06T15:21:58.649Z,24.80
2019-04-06T15:24:29.771Z,24.70
2019-04-06T15:26:57.883Z,24.70
2019-04-06T15:29:32.026Z,24.70
2019-04-06T15:32:00.144Z,24.70
2019-04-06T15:34:31.012Z,24.70
2019-04-06T15:37:02.334Z,24.70
2019-04-06T15:39:30.470Z,24.70
2019-04-06T15:42:13.820Z,24.60
2019-04-06T15:44:42.486Z,24.60
2019-04-06T15:47:23.076Z,24.50
2019-04-06T15:49:54.364Z,24.50
2019-04-06T15:52:25.547Z,24.50
2019-04-06T15:55:08.887Z,24.50
2019-04-06T15:57:43.384Z,24.50
2019-04-06T16:00:23.993Z,24.50
2019-04-06T16:02:55.097Z,24.40
2019-04-06T16:05:26.147Z,24.40
2019-04-06T16:08:12.484Z,24.40
2019-04-06T16:10:58.687Z,24.40
2019-04-06T16:13:29.375Z,24.40
2019-04-06T16:16:00.303Z,24.30
2019-04-06T16:18:31.241Z,24.30
2019-04-06T16:20:59.651Z,24.20
2019-04-06T16:23:44.069Z,24.10
2019-04-06T16:26:29.255Z,24.10
2019-04-06T16:29:13.172Z,24.00
2019-04-06T16:31:43.836Z,23.90
2019-04-06T16:34:15.175Z,23.80
2019-04-06T16:36:55.599Z,23.70
2019-04-06T16:39:32.925Z,23.60
2019-04-06T16:42:00.995Z,23.60
2019-04-06T16:44:32.534Z,23.50
2019-04-06T16:47:15.857Z,23.40
2019-04-06T16:49:45.506Z,23.30
2019-04-06T16:52:30.376Z,23.20
2019-04-06T16:54:58.558Z,23.00
2019-04-06T16:57:32.473Z,22.90
2019-04-06T17:00:04.693Z,22.60
2019-04-06T17:02:33.190Z,22.40
2019-04-06T17:05:18.083Z,22.20
2019-04-06T17:07:46.456Z,22.00
2019-04-06T17:10:17.347Z,21.80
2019-04-06T17:12:51.375Z,21.60
2019-04-06T17:15:19.490Z,21.50
2019-04-06T17:17:59.885Z,21.40
2019-04-06T17:20:43.687Z,21.20
2019-04-06T17:23:28.349Z,21.00
2019-04-06T17:26:05.759Z,20.90
2019-04-06T17:28:50.357Z,20.80
2019-04-06T17:31:18.563Z,20.70
2019-04-06T17:33:52.670Z,20.60
2019-04-06T17:36:32.954Z,20.50
2019-04-06T17:39:01.002Z,20.40
2019-04-06T17:41:46.527Z,20.40
2019-04-06T17:44:30.012Z,20.30
2019-04-06T17:47:01.908Z,20.20
2019-04-06T17:49:30.052Z,20.20
2019-04-06T17:52:00.909Z,20.10
2019-04-06T17:54:31.604Z,20.00
2019-04-06T17:57:03.794Z,20.00
2019-04-06T17:59:43.970Z,19.90
2019-04-06T18:02:18.088Z,19.90
2019-04-06T18:04:49.034Z,19.90
2019-04-06T18:07:34.373Z,19.80
2019-04-06T18:10:17.667Z,19.70
2019-04-06T18:13:02.666Z,19.70
2019-04-06T18:15:29.112Z,19.60
2019-04-06T18:17:55.345Z,19.60
2019-04-06T18:20:22.035Z,19.50
2019-04-06T18:22:48.403Z,19.50
2019-04-06T18:25:14.891Z,19.40
2019-04-06T18:27:41.106Z,19.40
2019-04-06T18:30:08.488Z,19.40
2019-04-06T18:32:58.334Z,19.40
2019-04-06T18:35:16.699Z,19.30
2019-04-06T18:37:51.430Z,19.30
2019-04-06T18:40:19.604Z,19.20
2019-04-06T18:42:45.804Z,19.20
2019-04-06T18:45:12.134Z,19.10
2019-04-06T18:47:38.325Z,19.10
2019-04-06T18:50:05.746Z,19.00
2019-04-06T18:52:32.305Z,19.00
2019-04-06T18:54:58.527Z,19.00
2019-04-06T18:57:24.732Z,18.90
2019-04-06T18:59:50.862Z,18.80
2019-04-06T19:02:17.440Z,18.80
2019-04-06T19:04:44.043Z,18.80
2019-04-06T19:07:10.868Z,18.70
2019-04-06T19:09:37.150Z,18.70
2019-04-06T19:12:03.465Z,18.60
2019-04-06T19:14:29.599Z,18.60
2019-04-06T19:16:55.952Z,18.50
2019-04-06T19:19:22.138Z,18.50
2019-04-06T19:21:49.032Z,18.50
2019-04-06T19:24:15.491Z,18.40
2019-04-06T19:26:42.253Z,18.40
2019-04-06T19:29:09.213Z,18.30
2019-04-06T19:31:35.480Z,18.30
2019-04-06T19:34:02.259Z,18.20
2019-04-06T19:36:28.514Z,18.20
2019-04-06T19:38:55.197Z,18.10
2019-04-06T19:41:21.510Z,18.10
2019-04-06T19:43:47.856Z,18.00
2019-04-06T19:46:14.143Z,17.90
2019-04-06T19:48:41.238Z,17.90
2019-04-06T19:51:08.609Z,17.80
2019-04-06T19:53:35.450Z,17.80
2019-04-06T19:56:02.074Z,17.70
2019-04-06T19:58:28.599Z,17.60
2019-04-06T20:00:54.730Z,17.60
2019-04-06T20:03:21.330Z,17.50
2019-04-06T20:05:47.589Z,17.50
2019-04-06T20:08:13.808Z,17.40
2019-04-06T20:10:39.951Z,17.40
2019-04-06T20:13:06.100Z,17.30
2019-04-06T20:15:32.291Z,17.30
2019-04-06T20:17:58.429Z,17.20
2019-04-06T20:20:24.657Z,17.20
2019-04-06T20:22:50.801Z,17.10
2019-04-06T20:25:17.677Z,17.10
2019-04-06T20:27:44.707Z,17.00
2019-04-06T20:30:12.299Z,17.00
2019-04-06T20:32:38.545Z,16.90
2019-04-06T20:35:07.630Z,16.90
2019-04-06T20:37:34.228Z,16.80
2019-04-06T20:40:00.519Z,16.80
2019-04-06T20:42:26.892Z,16.70
2019-04-06T20:44:53.102Z,16.70
2019-04-06T20:47:19.245Z,16.60
2019-04-06T20:49:45.448Z,16.60
2019-04-06T20:52:11.797Z,16.50
2019-04-06T20:54:38.466Z,16.50
2019-04-06T20:57:04.671Z,16.50
2019-04-06T20:59:30.876Z,16.40
2019-04-06T21:01:57.016Z,16.40
2019-04-06T21:04:23.639Z,16.40
2019-04-06T21:06:50.462Z,16.40
2019-04-06T21:09:16.919Z,16.30
2019-04-06T21:11:43.137Z,16.30
2019-04-06T21:14:09.273Z,16.20
2019-04-06T21:16:35.465Z,16.20
2019-04-06T21:19:01.603Z,16.20
2019-04-06T21:21:27.839Z,16.10
2019-04-06T21:23:54.039Z,16.10
2019-04-06T21:26:20.301Z,16.00
2019-04-06T21:28:46.796Z,16.00
2019-04-06T21:31:12.986Z,15.90
2019-04-06T21:33:39.728Z,15.90
2019-04-06T21:36:06.319Z,15.90
2019-04-06T21:38:32.465Z,15.80
2019-04-06T21:40:59.299Z,15.80
2019-04-06T21:43:25.493Z,15.80
2019-04-06T21:45:52.102Z,15.70
2019-04-06T21:48:18.389Z,15.70
2019-04-06T21:50:45.236Z,15.70
2019-04-06T21:53:12.090Z,15.60
2019-04-06T21:55:39.030Z,15.60
2019-04-06T21:58:05.393Z,15.60
2019-04-06T22:00:50.260Z,15.50
2019-04-06T22:03:16.720Z,15.50
2019-04-06T22:05:42.999Z,15.50
2019-04-06T22:08:09.391Z,15.40
2019-04-06T22:10:35.923Z,15.40
2019-04-06T22:13:02.600Z,15.40
2019-04-06T22:15:29.826Z,15.30
2019-04-06T22:17:56.595Z,15.30
2019-04-06T22:20:23.246Z,15.30
2019-04-06T22:22:49.561Z,15.20
2019-04-06T22:25:15.699Z,15.20
2019-04-06T22:27:41.921Z,15.20
2019-04-06T22:30:09.761Z,15.20
2019-04-06T22:32:36.541Z,15.20
2019-04-06T22:35:05.718Z,15.10
2019-04-06T22:37:32.537Z,15.10
2019-04-06T22:39:59.263Z,15.10
2019-04-06T22:42:26.109Z,15.00
2019-04-06T22:44:52.326Z,15.00
2019-04-06T22:47:18.795Z,14.90
2019-04-06T22:49:45.493Z,14.90
2019-04-06T22:52:12.220Z,14.80
2019-04-06T22:54:39.946Z,14.80
2019-04-06T22:57:06.356Z,14.80
2019-04-06T22:59:32.561Z,14.70
2019-04-06T23:01:58.806Z,14.70
2019-04-06T23:04:26.994Z,14.70
2019-04-06T23:06:55.241Z,14.60
2019-04-06T23:09:21.438Z,14.60
2019-04-06T23:11:47.590Z,14.60
2019-04-06T23:14:13.790Z,14.60
2019-04-06T23:16:39.966Z,14.50
2019-04-06T23:19:06.322Z,14.50
2019-04-06T23:21:32.636Z,14.50
2019-04-06T23:23:58.809Z,14.40
2019-04-06T23:26:25.060Z,14.40
2019-04-06T23:28:51.277Z,14.30
2019-04-06T23:31:17.422Z,14.30
2019-04-06T23:33:44.062Z,14.30
2019-04-06T23:36:10.524Z,14.20
2019-04-06T23:38:37.793Z,14.20
2019-04-06T23:41:04.120Z,14.10
2019-04-06T23:43:31.148Z,14.10
2019-04-06T23:45:57.929Z,14.10
2019-04-06T23:48:24.328Z,14.00
2019-04-06T23:50:50.469Z,14.00
2019-04-06T23:53:16.984Z,13.90
2019-04-06T23:55:43.795Z,13.90
2019-04-06T23:58:10.043Z,13.90
